Time;durP1;ratioP1;P1;durP2;ratioP2;P2;SDS_P1;SDS_P2;PMS_P1;PMS_P2;Temp;Humidity;BMP_temperature;BMP_pressure;BME280_temperature;BME280_humidity;BME280_pressure;Samples;Min_cycle;Max_cycle;Signal;HPM_P1;HPM_P2
2022/04/11 00:00:46;;;;;;;2.90;2.20;;;14.00;70.30;;;;;;3885401;30;20057;-65
2022/04/11 00:03:08;;;;;;;3.08;2.35;;;13.90;69.40;;;;;;3885259;30;20072;-64
2022/04/11 00:05:31;;;;;;;5.93;2.25;;;13.90;69.60;;;;;;3871790;30;20507;-65
2022/04/11 00:07:53;;;;;;;2.85;2.13;;;13.90;69.70;;;;;;3884669;30;20107;-66
2022/04/11 00:10:15;;;;;;;2.97;2.47;;;14.00;69.60;;;;;;3886955;30;20718;-65
2022/04/11 00:12:38;;;;;;;3.78;2.50;;;13.90;69.70;;;;;;3899685;30;20153;-65
2022/04/11 00:15:00;;;;;;;6.32;2.33;;;13.90;69.60;;;;;;3899844;30;20064;-65
2022/04/11 00:17:24;;;;;;;3.13;2.67;;;13.90;69.80;;;;;;3899649;30;20138;-65
2022/04/11 00:19:46;;;;;;;2.58;2.38;;;13.90;69.70;;;;;;3899044;30;20053;-65
2022/04/11 00:22:08;;;;;;;2.90;2.42;;;13.90;69.70;;;;;;3899286;30;21471;-66
2022/04/11 00:24:30;;;;;;;4.63;3.58;;;13.90;69.80;;;;;;3899131;30;20128;-65
2022/04/11 00:26:52;;;;;;;6.20;5.60;;;13.80;69.70;;;;;;3886483;30;20074;-65
2022/04/11 00:29:14;;;;;;;6.45;4.82;;;13.80;69.80;;;;;;3898943;30;20139;-65
2022/04/11 00:31:37;;;;;;;8.43;7.18;;;13.80;69.70;;;;;;3886152;30;20119;-65
2022/04/11 00:34:01;;;;;;;10.13;5.90;;;13.80;69.70;;;;;;3886237;30;20069;-65
2022/04/11 00:36:23;;;;;;;3.55;2.70;;;13.80;69.70;;;;;;3899295;30;20053;-65
2022/04/11 00:38:46;;;;;;;2.67;2.28;;;13.80;69.70;;;;;;3885488;30;20062;-65
2022/04/11 00:41:08;;;;;;;3.60;2.28;;;13.80;69.90;;;;;;3899079;30;20056;-66
2022/04/11 00:43:31;;;;;;;2.40;2.17;;;13.80;69.80;;;;;;3898810;30;20061;-66
2022/04/11 00:45:53;;;;;;;3.40;2.25;;;13.80;69.90;;;;;;3898495;30;20060;-65
2022/04/11 00:48:15;;;;;;;3.53;2.50;;;13.80;70.90;;;;;;3898802;30;20593;-65
2022/04/11 00:50:40;;;;;;;3.60;2.40;;;13.80;70.00;;;;;;3898618;30;20603;-65
2022/04/11 00:53:02;;;;;;;3.08;2.25;;;13.80;70.00;;;;;;3885987;30;20144;-65
2022/04/11 00:55:26;;;;;;;2.45;2.22;;;13.70;70.00;;;;;;3885565;30;20133;-65
2022/04/11 00:57:49;;;;;;;2.58;2.10;;;13.70;69.90;;;;;;3898227;30;20124;-65
2022/04/11 01:00:13;;;;;;;3.17;2.85;;;13.70;70.10;;;;;;3898719;30;20080;-65
2022/04/11 01:02:36;;;;;;;2.45;2.03;;;13.70;70.10;;;;;;3898697;30;20061;-65
2022/04/11 01:04:59;;;;;;;3.55;2.10;;;13.70;70.10;;;;;;3895421;30;20130;-65
2022/04/11 01:07:23;;;;;;;3.45;2.00;;;13.70;70.10;;;;;;3898845;30;20080;-65
2022/04/11 01:09:45;;;;;;;2.63;2.30;;;13.70;70.10;;;;;;3884903;30;20119;-65
2022/04/11 01:12:07;;;;;;;2.55;2.30;;;13.70;70.10;;;;;;3885427;30;20059;-65
2022/04/11 01:14:30;;;;;;;5.00;2.63;;;13.70;70.10;;;;;;3885538;30;20127;-65
2022/04/11 01:16:53;;;;;;;2.35;2.10;;;13.70;70.20;;;;;;3898859;30;20053;-65
2022/04/11 01:19:15;;;;;;;3.33;2.40;;;13.70;70.10;;;;;;3885027;30;20123;-65
2022/04/11 01:21:39;;;;;;;2.45;2.20;;;13.70;70.20;;;;;;3871327;30;20062;-65
2022/04/11 01:24:01;;;;;;;3.15;2.50;;;13.60;70.40;;;;;;3886049;30;20075;-65
2022/04/11 01:26:26;;;;;;;3.40;2.53;;;13.60;70.30;;;;;;3885509;30;20146;-65
2022/04/11 01:28:50;;;;;;;2.47;2.28;;;13.60;70.20;;;;;;3884983;30;20479;-65
2022/04/11 01:31:13;;;;;;;3.10;2.35;;;13.60;70.40;;;;;;3885104;30;20145;-65
2022/04/11 01:33:35;;;;;;;4.93;2.60;;;13.60;70.40;;;;;;3885121;30;20426;-65
2022/04/11 01:36:00;;;;;;;2.83;2.38;;;13.60;70.40;;;;;;3873070;30;20064;-65
2022/04/11 01:38:23;;;;;;;5.68;2.28;;;13.60;70.40;;;;;;3884979;30;20056;-65
2022/04/11 01:40:53;;;;;;;2.33;2.13;;;13.60;70.30;;;;;;3885321;30;20088;-65
2022/04/11 01:43:16;;;;;;;2.33;2.13;;;13.60;70.20;;;;;;3884629;30;20059;-66
2022/04/11 01:45:39;;;;;;;2.47;2.28;;;13.60;71.40;;;;;;3896828;30;20148;-65
2022/04/11 01:48:02;;;;;;;3.08;2.10;;;13.60;70.40;;;;;;3885661;30;20065;-65
2022/04/11 01:50:24;;;;;;;2.53;2.30;;;13.50;70.30;;;;;;3884385;30;20546;-64
2022/04/11 01:52:47;;;;;;;2.25;2.05;;;13.50;70.50;;;;;;3884885;30;20140;-64
2022/04/11 01:55:11;;;;;;;2.60;2.40;;;13.50;70.50;;;;;;3885502;30;20092;-65
2022/04/11 01:57:38;;;;;;;2.45;1.80;;;13.50;70.50;;;;;;3896489;30;20060;-65
2022/04/11 02:00:00;;;;;;;4.15;2.70;;;13.50;70.60;;;;;;3885044;30;20064;-65
2022/04/11 02:02:24;;;;;;;4.00;2.13;;;13.50;70.60;;;;;;3885047;30;20518;-66
2022/04/11 02:04:46;;;;;;;3.95;2.22;;;13.50;70.80;;;;;;3897521;30;20712;-66
2022/04/11 02:07:09;;;;;;;3.70;2.42;;;13.50;70.80;;;;;;3897942;30;20068;-66
2022/04/11 02:09:31;;;;;;;2.60;2.40;;;13.50;70.60;;;;;;3882789;30;20528;-66
2022/04/11 02:11:54;;;;;;;4.03;2.40;;;13.50;70.70;;;;;;3883387;30;20628;-66
2022/04/11 02:14:17;;;;;;;3.55;2.20;;;13.40;70.70;;;;;;3884286;30;20123;-65
2022/04/11 02:16:39;;;;;;;3.50;2.45;;;13.50;70.80;;;;;;3896855;30;20417;-65
2022/04/11 02:19:01;;;;;;;3.97;2.35;;;13.40;71.70;;;;;;3897696;30;20402;-65
2022/04/11 02:21:24;;;;;;;3.80;2.00;;;13.40;70.80;;;;;;3884680;30;20081;-65
2022/04/11 02:23:46;;;;;;;3.03;2.38;;;13.40;70.70;;;;;;3897888;30;20130;-66
2022/04/11 02:26:09;;;;;;;2.88;2.60;;;13.40;70.80;;;;;;3897366;30;20122;-65
2022/04/11 02:28:32;;;;;;;4.55;2.25;;;13.40;70.80;;;;;;3884911;30;20061;-65
2022/04/11 02:30:54;;;;;;;2.47;2.13;;;13.40;70.80;;;;;;3884055;30;20591;-66
2022/04/11 02:33:17;;;;;;;2.70;2.20;;;13.40;70.90;;;;;;3884650;30;20164;-66
2022/04/11 02:35:40;;;;;;;2.05;1.95;;;13.40;70.90;;;;;;3884625;30;20115;-65
2022/04/11 02:38:03;;;;;;;2.75;2.08;;;13.40;71.00;;;;;;3882060;30;20065;-65
2022/04/11 02:40:28;;;;;;;2.13;1.92;;;13.30;71.10;;;;;;3882529;30;20497;-65
2022/04/11 02:43:15;;;;;;;1.92;1.73;;;13.40;71.20;;;;;;3883390;30;20156;-64
2022/04/11 02:46:02;;;;;;;2.20;1.88;;;13.30;72.00;;;;;;3883614;30;20513;-64
2022/04/11 02:48:29;;;;;;;3.58;1.60;;;13.30;71.10;;;;;;3882221;30;20053;-64
2022/04/11 02:51:00;;;;;;;3.05;1.92;;;13.30;71.10;;;;;;3892808;30;20552;-64
2022/04/11 02:53:30;;;;;;;2.08;1.95;;;13.30;71.10;;;;;;3882662;30;20073;-64
2022/04/11 02:55:52;;;;;;;1.77;1.52;;;13.30;71.10;;;;;;3882479;30;20120;-64
2022/04/11 02:58:15;;;;;;;4.05;1.80;;;13.30;71.10;;;;;;3883814;30;20152;-64
2022/04/11 03:00:38;;;;;;;5.07;1.83;;;13.30;71.20;;;;;;3882990;30;20069;-64
2022/04/11 03:03:01;;;;;;;2.67;1.30;;;13.30;71.30;;;;;;3870034;30;20058;-65
2022/04/11 03:05:26;;;;;;;4.30;2.03;;;13.30;71.40;;;;;;3870823;30;21007;-64
2022/04/11 03:07:50;;;;;;;1.52;1.30;;;13.30;71.50;;;;;;3882278;30;20124;-64
2022/04/11 03:10:14;;;;;;;1.85;1.75;;;13.30;71.60;;;;;;3878625;30;20058;-65
2022/04/11 03:12:36;;;;;;;3.92;1.48;;;13.30;71.50;;;;;;3882370;30;20136;-65
2022/04/11 03:15:01;;;;;;;2.35;2.05;;;13.30;71.50;;;;;;3882698;30;20057;-65
2022/04/11 03:17:24;;;;;;;1.80;1.70;;;13.30;71.70;;;;;;3894200;30;20482;-66
2022/04/11 03:19:48;;;;;;;4.07;2.03;;;13.30;71.70;;;;;;3880107;30;20045;-66
2022/04/11 03:22:10;;;;;;;1.45;1.35;;;13.20;72.40;;;;;;3880442;30;20057;-66
2022/04/11 03:24:34;;;;;;;2.72;1.50;;;13.20;71.50;;;;;;3877878;30;20081;-66
2022/04/11 03:26:56;;;;;;;2.72;2.08;;;13.20;71.60;;;;;;3881646;30;20061;-67
2022/04/11 03:29:23;;;;;;;2.35;2.10;;;13.20;71.60;;;;;;3882070;30;20058;-66
2022/04/11 03:31:48;;;;;;;2.70;1.80;;;13.20;71.70;;;;;;3879991;30;20056;-66
2022/04/11 03:34:11;;;;;;;2.50;1.52;;;13.20;71.80;;;;;;3867036;30;20047;-66
2022/04/11 03:36:35;;;;;;;2.55;1.55;;;13.20;71.80;;;;;;3879925;30;20558;-67
2022/04/11 03:38:58;;;;;;;1.65;1.55;;;13.20;71.80;;;;;;3881591;30;20061;-66
2022/04/11 03:41:23;;;;;;;2.58;1.40;;;13.10;71.80;;;;;;3883576;30;20115;-66
2022/04/11 03:43:45;;;;;;;1.80;1.58;;;13.10;71.80;;;;;;3884682;30;20599;-66
2022/04/11 03:46:07;;;;;;;2.45;1.67;;;13.20;71.90;;;;;;3886105;30;20425;-66
2022/04/11 03:48:30;;;;;;;2.95;1.55;;;13.10;71.90;;;;;;3896965;30;20065;-66
2022/04/11 03:50:55;;;;;;;1.50;1.40;;;13.10;71.90;;;;;;3882120;30;20068;-67
2022/04/11 03:53:18;;;;;;;2.67;1.75;;;13.10;71.90;;;;;;3870478;30;20148;-66
2022/04/11 03:55:46;;;;;;;2.97;1.70;;;13.10;72.10;;;;;;3882216;30;20057;-67
2022/04/11 03:58:09;;;;;;;3.33;1.70;;;13.10;72.20;;;;;;3870430;30;20625;-66
2022/04/11 04:00:53;;;;;;;2.08;1.50;;;13.10;72.10;;;;;;3870557;30;20499;-66
2022/04/11 04:03:23;;;;;;;2.85;1.55;;;13.10;72.40;;;;;;3875036;30;20057;-66
2022/04/11 04:05:52;;;;;;;3.83;1.75;;;13.10;72.40;;;;;;3884318;30;20064;-66
2022/04/11 04:08:23;;;;;;;1.80;1.70;;;13.00;72.30;;;;;;3884115;30;20084;-66
2022/04/11 04:11:01;;;;;;;3.17;2.03;;;13.00;72.40;;;;;;3869929;30;20121;-66
2022/04/11 04:13:30;;;;;;;3.45;1.65;;;13.00;72.60;;;;;;3854494;30;20084;-66
2022/04/11 04:15:53;;;;;;;1.92;1.77;;;13.10;72.60;;;;;;3854939;30;20066;-66
2022/04/11 04:18:16;;;;;;;2.40;1.48;;;13.00;72.50;;;;;;3869731;30;20079;-66
2022/04/11 04:20:38;;;;;;;1.65;1.55;;;13.00;72.70;;;;;;3871337;30;20066;-66
2022/04/11 04:23:01;;;;;;;2.55;1.75;;;13.00;72.80;;;;;;3871466;30;20125;-66
2022/04/11 04:25:28;;;;;;;3.03;1.73;;;13.00;72.80;;;;;;3870681;30;20062;-67
2022/04/11 04:27:50;;;;;;;1.73;1.63;;;13.00;72.70;;;;;;3870924;30;20062;-66
2022/04/11 04:30:14;;;;;;;2.50;2.30;;;13.00;72.90;;;;;;3871459;30;20136;-66
2022/04/11 04:32:36;;;;;;;2.80;1.52;;;13.00;72.90;;;;;;3884646;30;20057;-66
2022/04/11 04:34:59;;;;;;;2.15;1.40;;;13.00;72.90;;;;;;3884998;30;20088;-66
2022/04/11 04:37:21;;;;;;;1.77;1.50;;;12.90;72.70;;;;;;3871257;30;20427;-66
2022/04/11 04:39:46;;;;;;;2.33;1.70;;;13.00;72.60;;;;;;3883074;30;20084;-66
2022/04/11 04:42:10;;;;;;;3.42;1.77;;;13.00;72.80;;;;;;3883326;30;20195;-67
2022/04/11 04:44:32;;;;;;;3.03;1.40;;;12.90;72.70;;;;;;3883941;30;20144;-67
2022/04/11 04:46:56;;;;;;;2.03;1.80;;;12.90;72.80;;;;;;3869081;30;20069;-67
2022/04/11 04:49:28;;;;;;;1.80;1.70;;;12.90;73.60;;;;;;3881522;30;20091;-67
2022/04/11 04:51:54;;;;;;;4.28;1.75;;;12.90;72.80;;;;;;3867420;30;20457;-66
2022/04/11 04:54:16;;;;;;;2.58;1.80;;;12.90;73.10;;;;;;3874290;30;20186;-66
2022/04/11 04:56:39;;;;;;;3.33;1.85;;;12.90;73.10;;;;;;3881795;30;20097;-65
2022/04/11 04:59:08;;;;;;;4.07;2.10;;;12.90;73.10;;;;;;3868023;30;20068;-65
2022/04/11 05:01:32;;;;;;;3.00;1.75;;;12.90;73.10;;;;;;3869472;30;20066;-65
2022/04/11 05:03:55;;;;;;;4.07;1.80;;;12.90;73.20;;;;;;3870674;30;20150;-65
2022/04/11 05:06:23;;;;;;;3.08;1.67;;;12.90;73.40;;;;;;3869029;30;20065;-65
2022/04/11 05:08:45;;;;;;;3.35;2.08;;;12.90;73.40;;;;;;3869149;30;20153;-66
2022/04/11 05:11:07;;;;;;;3.85;1.80;;;12.90;73.50;;;;;;3869761;30;20069;-66
2022/04/11 05:13:30;;;;;;;2.67;1.77;;;12.80;73.40;;;;;;3867096;30;20077;-66
2022/04/11 05:15:54;;;;;;;1.85;1.70;;;12.90;73.50;;;;;;3867224;30;20112;-66
2022/04/11 05:18:20;;;;;;;2.80;1.70;;;12.80;73.40;;;;;;3854895;30;20050;-66
2022/04/11 05:20:43;;;;;;;4.07;1.77;;;12.80;73.50;;;;;;3867291;30;20470;-66
2022/04/11 05:23:06;;;;;;;4.10;2.22;;;12.80;73.10;;;;;;3867238;30;20054;-66
2022/04/11 05:25:31;;;;;;;2.78;2.05;;;12.90;73.10;;;;;;3869393;30;20186;-66
2022/04/11 05:27:55;;;;;;;4.30;2.10;;;12.80;73.00;;;;;;3869180;30;20121;-66
2022/04/11 05:30:18;;;;;;;3.08;2.05;;;12.80;73.90;;;;;;3868620;30;20098;-66
2022/04/11 05:32:43;;;;;;;2.00;1.60;;;12.90;73.00;;;;;;3866103;30;20058;-66
2022/04/11 05:35:07;;;;;;;4.38;2.13;;;12.90;73.10;;;;;;3875933;30;20061;-66
2022/04/11 05:37:30;;;;;;;3.53;2.10;;;12.90;73.30;;;;;;3881216;30;20077;-65
2022/04/11 05:39:52;;;;;;;4.13;1.70;;;12.90;73.30;;;;;;3870057;30;20106;-65
2022/04/11 05:42:18;;;;;;;3.20;1.75;;;12.90;73.30;;;;;;3881003;30;20057;-65
2022/04/11 05:44:40;;;;;;;2.22;2.08;;;12.90;73.00;;;;;;3868810;30;20081;-70
2022/04/11 05:47:02;;;;;;;5.72;2.45;;;12.90;73.30;;;;;;3868717;30;20426;-71
2022/04/11 05:49:32;;;;;;;2.97;2.08;;;12.90;73.30;;;;;;3868525;30;20239;-71
2022/04/11 05:51:55;;;;;;;2.42;2.10;;;12.90;73.40;;;;;;3866431;30;20093;-71
2022/04/11 05:54:18;;;;;;;4.90;2.00;;;12.90;73.50;;;;;;3865963;30;20169;-69
2022/04/11 05:56:40;;;;;;;3.30;2.00;;;12.90;73.50;;;;;;3854539;30;20062;-70
2022/04/11 05:59:08;;;;;;;3.33;1.98;;;12.90;74.50;;;;;;3866367;30;20491;-71
2022/04/11 06:01:30;;;;;;;4.90;1.90;;;12.90;73.60;;;;;;3866259;30;20121;-71
2022/04/11 06:03:54;;;;;;;2.47;2.20;;;12.90;73.60;;;;;;3872946;30;20053;-73
2022/04/11 06:06:23;;;;;;;4.72;2.10;;;12.90;73.60;;;;;;3868192;30;20054;-71
2022/04/11 06:08:45;;;;;;;3.72;1.92;;;12.90;73.60;;;;;;3857586;30;20113;-72
2022/04/11 06:11:08;;;;;;;7.88;2.15;;;12.90;73.40;;;;;;3855547;30;20054;-72
2022/04/11 06:13:30;;;;;;;5.45;1.90;;;12.90;73.40;;;;;;3855863;30;20499;-72
2022/04/11 06:15:54;;;;;;;6.90;2.63;;;12.90;73.20;;;;;;3858996;30;20072;-72
2022/04/11 06:18:17;;;;;;;5.55;2.25;;;12.80;72.90;;;;;;3855645;30;20188;-71
2022/04/11 06:20:40;;;;;;;3.00;2.30;;;12.80;72.90;;;;;;3866429;30;20533;-71
2022/04/11 06:23:04;;;;;;;4.30;2.15;;;12.80;72.90;;;;;;3865955;30;20087;-71
2022/04/11 06:25:26;;;;;;;5.93;2.20;;;12.80;72.80;;;;;;3866180;30;20066;-71
2022/04/11 06:27:48;;;;;;;2.42;2.17;;;12.80;72.60;;;;;;3862901;30;20054;-71
2022/04/11 06:30:12;;;;;;;2.08;1.88;;;12.80;72.50;;;;;;3867776;30;20170;-71
2022/04/11 06:32:37;;;;;;;2.90;1.95;;;12.80;73.40;;;;;;3867924;30;20058;-71
2022/04/11 06:34:59;;;;;;;3.05;2.15;;;12.80;72.60;;;;;;3868184;30;20073;-70
2022/04/11 06:37:23;;;;;;;4.15;2.42;;;12.80;72.40;;;;;;3865620;30;20078;-70
2022/04/11 06:39:48;;;;;;;3.55;2.10;;;12.80;72.00;;;;;;3866032;30;20096;-70
2022/04/11 06:42:10;;;;;;;4.03;2.78;;;12.80;72.00;;;;;;3866363;30;20054;-70
2022/04/11 06:44:33;;;;;;;6.15;2.28;;;12.80;71.90;;;;;;3855551;30;20119;-71
2022/04/11 06:47:06;;;;;;;8.23;2.60;;;12.80;71.50;;;;;;3867828;30;20084;-70
2022/04/11 06:49:31;;;;;;;4.40;2.55;;;12.80;71.90;;;;;;3855996;30;20054;-69
2022/04/11 06:51:55;;;;;;;2.88;2.67;;;12.70;71.80;;;;;;3866223;30;20050;-68
2022/04/11 06:54:17;;;;;;;6.88;2.67;;;12.80;71.90;;;;;;3867374;30;20112;-68
2022/04/11 06:56:40;;;;;;;3.40;2.13;;;12.70;71.90;;;;;;3866052;30;20577;-68
2022/04/11 06:59:02;;;;;;;5.35;3.15;;;12.70;71.80;;;;;;3866994;30;20054;-68
2022/04/11 07:01:24;;;;;;;6.68;4.10;;;12.80;72.00;;;;;;3867159;30;20061;-69
2022/04/11 07:03:47;;;;;;;8.50;4.40;;;12.70;72.00;;;;;;3859944;30;20106;-68
2022/04/11 07:06:10;;;;;;;5.82;3.30;;;12.70;72.30;;;;;;3866478;30;20067;-68
2022/04/11 07:08:32;;;;;;;5.57;3.85;;;12.80;72.40;;;;;;3866920;30;20137;-67
2022/04/11 07:10:54;;;;;;;5.35;3.83;;;12.70;72.30;;;;;;3867027;30;20060;-67
2022/04/11 07:13:17;;;;;;;7.45;3.60;;;12.70;72.20;;;;;;3867088;30;20089;-66
2022/04/11 07:15:40;;;;;;;6.97;3.53;;;12.80;72.40;;;;;;3867457;30;20081;-66
2022/04/11 07:18:02;;;;;;;6.13;2.70;;;12.80;72.70;;;;;;3870079;30;20057;-66
2022/04/11 07:20:24;;;;;;;3.28;2.83;;;12.80;73.00;;;;;;3880706;30;20050;-66
2022/04/11 07:22:46;;;;;;;3.63;2.45;;;12.70;73.20;;;;;;3869520;30;20077;-66
2022/04/11 07:25:09;;;;;;;3.38;2.50;;;12.80;73.50;;;;;;3869859;30;20058;-66
2022/04/11 07:27:31;;;;;;;2.75;2.00;;;12.80;73.50;;;;;;3856298;30;20066;-64
2022/04/11 07:29:54;;;;;;;2.15;1.95;;;12.70;73.60;;;;;;3869936;30;20128;-63
2022/04/11 07:32:17;;;;;;;5.22;2.75;;;12.80;73.80;;;;;;3867508;30;20062;-63
2022/04/11 07:34:40;;;;;;;7.60;2.65;;;12.70;74.10;;;;;;3867092;30;20173;-63
2022/04/11 07:37:04;;;;;;;4.70;2.63;;;12.80;75.20;;;;;;3867263;30;20157;-64
2022/04/11 07:39:28;;;;;;;4.38;2.28;;;12.80;75.60;;;;;;3867239;30;20062;-64
2022/04/11 07:41:50;;;;;;;1.95;1.70;;;12.80;75.70;;;;;;3867286;30;20065;-63
2022/04/11 07:44:12;;;;;;;2.72;2.50;;;12.80;75.90;;;;;;3866808;30;20053;-64
2022/04/11 07:46:36;;;;;;;2.65;2.22;;;12.80;76.10;;;;;;3867341;30;20124;-64
2022/04/11 07:48:58;;;;;;;4.90;2.10;;;12.80;77.20;;;;;;3867485;30;20462;-61
2022/04/11 07:51:21;;;;;;;4.07;2.40;;;12.80;76.80;;;;;;3883084;30;20391;-63
2022/04/11 07:53:43;;;;;;;4.43;2.22;;;12.90;76.50;;;;;;3894151;30;20107;-63
2022/04/11 07:56:05;;;;;;;5.18;2.33;;;12.90;75.70;;;;;;3894981;30;20071;-64
2022/04/11 07:58:27;;;;;;;4.70;2.20;;;13.00;76.00;;;;;;3896339;30;20971;-62
2022/04/11 08:00:51;;;;;;;4.80;2.50;;;13.10;75.50;;;;;;3897342;30;20472;-65
2022/04/11 08:03:15;;;;;;;3.88;2.47;;;13.20;75.60;;;;;;3896996;30;20508;-65
2022/04/11 08:05:38;;;;;;;2.83;2.53;;;13.20;74.80;;;;;;3897022;30;20057;-64
2022/04/11 08:08:00;;;;;;;3.45;2.67;;;13.20;74.60;;;;;;3884297;30;20115;-64
2022/04/11 08:10:22;;;;;;;7.25;2.80;;;13.20;74.30;;;;;;3896718;30;20501;-65
2022/04/11 08:12:52;;;;;;;3.10;2.80;;;13.20;74.30;;;;;;3896749;30;20053;-66
2022/04/11 08:15:14;;;;;;;2.75;2.35;;;13.30;73.70;;;;;;3896229;30;20465;-65
2022/04/11 08:17:36;;;;;;;6.97;2.13;;;13.30;73.20;;;;;;3897233;30;20052;-66
2022/04/11 08:19:59;;;;;;;4.03;2.33;;;13.30;73.10;;;;;;3883896;30;20049;-65
2022/04/11 08:22:21;;;;;;;4.32;2.42;;;13.30;72.90;;;;;;3895680;30;20252;-66
2022/04/11 08:24:44;;;;;;;4.53;1.95;;;13.30;72.10;;;;;;3896490;30;20057;-66
2022/04/11 08:27:06;;;;;;;6.50;1.98;;;13.30;71.70;;;;;;3896570;30;20060;-66
2022/04/11 08:29:28;;;;;;;5.38;2.47;;;13.40;72.10;;;;;;3896637;30;20088;-65
2022/04/11 08:31:50;;;;;;;4.35;1.70;;;13.40;71.30;;;;;;3896666;30;20060;-65
2022/04/11 08:34:12;;;;;;;4.63;2.13;;;13.50;70.30;;;;;;3897212;30;20075;-66
2022/04/11 08:36:36;;;;;;;3.88;1.70;;;13.50;70.40;;;;;;3896508;30;20061;-66
2022/04/11 08:38:58;;;;;;;7.50;1.90;;;13.50;69.00;;;;;;3896721;30;20103;-66
2022/04/11 08:41:20;;;;;;;3.22;1.88;;;13.60;69.80;;;;;;3896390;30;20421;-66
2022/04/11 08:43:44;;;;;;;7.43;2.08;;;13.60;70.90;;;;;;3896402;30;20088;-66
2022/04/11 08:46:06;;;;;;;4.47;2.25;;;13.70;70.40;;;;;;3896763;30;20064;-66
2022/04/11 08:48:28;;;;;;;2.47;1.60;;;13.70;68.90;;;;;;3896801;30;20056;-66
2022/04/11 08:50:51;;;;;;;4.28;2.10;;;13.70;65.00;;;;;;3872977;30;20065;-66
2022/04/11 08:53:14;;;;;;;1.95;1.70;;;13.80;65.00;;;;;;3896300;30;20514;-66
2022/04/11 08:55:36;;;;;;;1.80;1.70;;;13.80;66.10;;;;;;3896523;30;20068;-66
2022/04/11 08:57:59;;;;;;;2.40;1.63;;;13.80;65.90;;;;;;3896336;30;20064;-65
2022/04/11 09:00:21;;;;;;;4.05;1.73;;;13.80;65.30;;;;;;3896520;30;20509;-66
2022/04/11 09:02:44;;;;;;;2.35;1.58;;;13.90;60.70;;;;;;3896561;30;20071;-66
2022/04/11 09:05:07;;;;;;;3.10;2.03;;;13.90;61.60;;;;;;3896739;30;20118;-66
2022/04/11 09:07:45;;;;;;;3.70;2.05;;;13.90;61.70;;;;;;3896580;30;20084;-65
2022/04/11 09:10:10;;;;;;;4.90;2.28;;;13.90;62.70;;;;;;3896210;30;20111;-65
2022/04/11 09:12:44;;;;;;;6.57;2.20;;;13.90;63.90;;;;;;3896325;30;20473;-65
2022/04/11 09:15:07;;;;;;;2.97;1.70;;;14.00;66.00;;;;;;3895850;30;20077;-65
2022/04/11 09:17:41;;;;;;;3.55;1.83;;;14.00;66.00;;;;;;3896411;30;20060;-65
2022/04/11 09:20:07;;;;;;;5.05;1.90;;;14.00;64.40;;;;;;3871207;30;20088;-65
2022/04/11 09:22:35;;;;;;;2.60;1.65;;;14.10;65.70;;;;;;3882287;30;20434;-66
2022/04/11 09:25:07;;;;;;;2.45;1.30;;;14.00;66.10;;;;;;3895588;30;20068;-66
2022/04/11 09:27:30;;;;;;;1.95;1.45;;;14.10;64.30;;;;;;3895312;30;20462;-65
2022/04/11 09:29:52;;;;;;;2.45;1.73;;;14.10;61.80;;;;;;3895819;30;20061;-65
2022/04/11 09:32:14;;;;;;;2.25;1.50;;;14.10;62.50;;;;;;3896217;30;20766;-66
2022/04/11 09:34:37;;;;;;;3.88;1.60;;;14.20;62.60;;;;;;3895964;30;20057;-65
2022/04/11 09:37:02;;;;;;;2.30;1.60;;;14.20;62.50;;;;;;3895763;30;20390;-66
2022/04/11 09:39:26;;;;;;;5.85;1.80;;;14.20;60.00;;;;;;3895697;30;20144;-66
2022/04/11 09:41:53;;;;;;;3.22;1.50;;;14.20;58.40;;;;;;3896033;30;20182;-66
2022/04/11 09:44:27;;;;;;;1.95;1.15;;;14.20;58.10;;;;;;3895901;30;20127;-67
2022/04/11 09:46:49;;;;;;;2.13;1.10;;;14.20;57.30;;;;;;3895983;30;20076;-66
2022/04/11 09:49:12;;;;;;;7.93;1.80;;;14.20;56.90;;;;;;3895712;30;20084;-66
2022/04/11 09:51:34;;;;;;;2.03;1.40;;;14.10;58.30;;;;;;3895400;30;20057;-66
2022/04/11 09:53:56;;;;;;;3.03;1.20;;;14.20;57.40;;;;;;3882768;30;20140;-66
2022/04/11 09:56:20;;;;;;;9.23;1.40;;;14.20;56.80;;;;;;3895542;30;20121;-66
2022/04/11 09:58:43;;;;;;;1.15;1.08;;;14.20;58.90;;;;;;3895282;30;20060;-66
2022/04/11 10:01:08;;;;;;;2.83;1.77;;;14.20;60.60;;;;;;3882885;30;20521;-67
2022/04/11 10:03:31;;;;;;;3.92;1.40;;;14.30;59.50;;;;;;3895266;30;20076;-67
2022/04/11 10:05:56;;;;;;;2.38;1.50;;;14.30;57.90;;;;;;3894903;30;20049;-66
2022/04/11 10:08:19;;;;;;;2.15;1.42;;;14.30;56.80;;;;;;3895585;30;20516;-66
2022/04/11 10:10:42;;;;;;;3.13;1.38;;;14.30;58.40;;;;;;3895618;30;20148;-65
2022/04/11 10:13:06;;;;;;;5.38;1.88;;;14.40;60.50;;;;;;3895602;30;20474;-66
2022/04/11 10:15:30;;;;;;;4.75;1.80;;;14.40;60.90;;;;;;3895197;30;20146;-66
2022/04/11 10:17:54;;;;;;;2.30;1.30;;;14.40;62.50;;;;;;3895227;30;20110;-65
2022/04/11 10:20:25;;;;;;;2.85;1.42;;;14.50;63.60;;;;;;3895244;30;20112;-66
2022/04/11 10:22:55;;;;;;;1.75;1.30;;;14.50;63.20;;;;;;3895017;30;20537;-65
2022/04/11 10:25:20;;;;;;;1.42;1.10;;;14.50;62.30;;;;;;3894732;30;20061;-65
2022/04/11 10:27:44;;;;;;;3.58;1.23;;;14.60;61.50;;;;;;3894871;30;20061;-65
2022/04/11 10:30:27;;;;;;;2.05;1.27;;;14.70;59.70;;;;;;3895208;30;20060;-66
2022/04/11 10:32:55;;;;;;;1.25;1.10;;;14.70;59.20;;;;;;3895503;30;20128;-66
2022/04/11 10:35:32;;;;;;;3.85;1.63;;;14.70;58.90;;;;;;3894667;30;20788;-66
2022/04/11 10:38:09;;;;;;;2.83;1.30;;;14.70;61.60;;;;;;3894931;30;20110;-65
2022/04/11 10:40:30;;;;;;;4.43;1.67;;;14.80;62.10;;;;;;3894876;30;20064;-66
2022/04/11 10:43:14;;;;;;;2.47;1.30;;;14.80;63.10;;;;;;3894884;30;20057;-66
2022/04/11 10:45:39;;;;;;;5.13;1.70;;;14.80;62.00;;;;;;3895104;30;20148;-66
2022/04/11 10:48:03;;;;;;;3.53;1.42;;;14.80;63.00;;;;;;3894700;30;20068;-66
2022/04/11 10:50:28;;;;;;;2.13;1.50;;;14.90;62.60;;;;;;3895377;30;21023;-66
2022/04/11 10:52:55;;;;;;;3.60;1.73;;;14.90;62.50;;;;;;3898119;30;20064;-66
2022/04/11 10:55:19;;;;;;;4.60;1.77;;;14.90;62.10;;;;;;3898142;30;20045;-65
2022/04/11 10:57:43;;;;;;;4.25;1.60;;;15.00;59.80;;;;;;3897475;30;20059;-67
2022/04/11 11:00:08;;;;;;;3.47;1.90;;;15.00;59.10;;;;;;3897484;30;20516;-67
2022/04/11 11:03:10;;;;;;;3.45;1.60;;;15.00;61.10;;;;;;3897867;30;21044;-68
2022/04/11 11:05:35;;;;;;;3.55;1.70;;;15.10;62.20;;;;;;3897401;30;20144;-67
2022/04/11 11:08:32;;;;;;;3.20;1.70;;;15.10;60.60;;;;;;3897014;30;20099;-67
2022/04/11 11:10:56;;;;;;;2.60;1.40;;;15.10;62.30;;;;;;3852770;30;20062;-67
2022/04/11 11:13:30;;;;;;;5.88;2.05;;;15.10;63.50;;;;;;3891948;30;20061;-67
2022/04/11 11:15:52;;;;;;;3.75;1.70;;;15.10;61.70;;;;;;3897797;30;20049;-67
2022/04/11 11:18:16;;;;;;;4.68;1.73;;;15.20;62.60;;;;;;3884431;30;20131;-67
2022/04/11 11:20:51;;;;;;;3.05;1.80;;;15.20;61.20;;;;;;3897683;30;20613;-67
2022/04/11 11:23:16;;;;;;;4.50;1.90;;;15.20;60.60;;;;;;3897236;30;20080;-67
2022/04/11 11:25:38;;;;;;;4.13;1.63;;;15.20;57.70;;;;;;3897616;30;20437;-67
2022/04/11 11:28:01;;;;;;;2.65;1.92;;;15.30;57.70;;;;;;3897573;30;20063;-66
2022/04/11 11:30:23;;;;;;;5.15;1.90;;;15.30;55.40;;;;;;3897844;30;20053;-67
2022/04/11 11:32:45;;;;;;;4.05;1.88;;;15.30;58.90;;;;;;3897501;30;20085;-67
2022/04/11 11:35:10;;;;;;;6.35;1.85;;;15.30;60.40;;;;;;3897586;30;20045;-67
2022/04/11 11:37:33;;;;;;;4.72;2.30;;;15.30;61.30;;;;;;3896950;30;20061;-67
2022/04/11 11:39:56;;;;;;;3.10;2.15;;;15.30;60.40;;;;;;3897574;30;20056;-67
2022/04/11 11:42:18;;;;;;;2.67;2.10;;;15.30;59.00;;;;;;3897131;30;20072;-67
2022/04/11 11:44:44;;;;;;;3.67;2.13;;;15.30;59.30;;;;;;3897526;30;20064;-66
2022/04/11 11:47:07;;;;;;;3.53;2.35;;;15.40;60.90;;;;;;3896901;30;20088;-68
2022/04/11 11:49:38;;;;;;;3.22;2.25;;;15.40;57.70;;;;;;3897152;30;20482;-67
2022/04/11 11:52:01;;;;;;;4.13;2.08;;;15.40;57.10;;;;;;3896559;30;20166;-67
2022/04/11 11:54:34;;;;;;;3.25;2.20;;;15.40;55.70;;;;;;3897124;30;20421;-67
2022/04/11 11:56:56;;;;;;;5.20;2.80;;;15.40;57.30;;;;;;3896359;30;20055;-66
2022/04/11 11:59:24;;;;;;;4.25;2.58;;;15.40;53.90;;;;;;3897310;30;20092;-66
2022/04/11 12:04:18;;;;;;;4.80;2.63;;;15.40;56.60;;;;;;3897030;30;20056;-66
2022/04/11 12:04:34;;;;;;;8.10;2.58;;;15.40;57.60;;;;;;3896657;30;20057;-66
2022/04/11 12:06:56;;;;;;;2.22;2.03;;;15.40;55.80;;;;;;3884364;30;20453;-66
2022/04/11 12:09:20;;;;;;;7.32;2.28;;;15.40;55.10;;;;;;3897056;30;20073;-66
2022/04/11 12:11:43;;;;;;;3.47;2.40;;;15.50;58.00;;;;;;3897029;30;20053;-66
2022/04/11 12:14:07;;;;;;;3.30;2.70;;;15.50;58.70;;;;;;3896939;30;20554;-66
2022/04/11 12:16:30;;;;;;;2.75;2.53;;;15.50;58.80;;;;;;3896950;30;20406;-67
2022/04/11 12:18:54;;;;;;;4.47;2.47;;;15.50;57.90;;;;;;3896776;30;20379;-66
2022/04/11 12:21:16;;;;;;;5.05;2.58;;;15.50;55.70;;;;;;3897068;30;20089;-66
2022/04/11 12:23:46;;;;;;;3.95;2.90;;;15.50;54.00;;;;;;3896722;30;20077;-66
2022/04/11 12:26:09;;;;;;;5.60;2.92;;;15.50;55.60;;;;;;3896540;30;20394;-66
2022/04/11 12:28:36;;;;;;;5.47;3.17;;;15.50;57.50;;;;;;3896754;30;20072;-66
2022/04/11 12:31:12;;;;;;;5.53;2.88;;;15.50;56.10;;;;;;3897067;30;20465;-66
2022/04/11 12:33:36;;;;;;;4.47;2.63;;;15.50;57.70;;;;;;3896353;30;20068;-66